Time;durP1;ratioP1;P1;durP2;ratioP2;P2;SDS_P1;SDS_P2;PMS_P1;PMS_P2;Temp;Humidity;BMP_temperature;BMP_pressure;BME280_temperature;BME280_humidity;BME280_pressure;Samples;Min_cycle;Max_cycle;Signal;HPM_P1;HPM_P2
2021/09/01 00:01:37;;;;;;;10.05;7.72;;;15.40;99.90;;;;;;5075475;28;20779;-76
2021/09/01 00:04:05;;;;;;;11.63;8.52;;;15.40;99.90;;;;;;5075734;28;20601;-77
2021/09/01 00:06:33;;;;;;;10.90;8.57;;;15.30;99.90;;;;;;5078078;28;20291;-77
2021/09/01 00:08:59;;;;;;;10.02;7.47;;;15.30;99.90;;;;;;5075843;28;20213;-76
2021/09/01 00:11:26;;;;;;;9.98;7.60;;;15.30;99.90;;;;;;5075839;28;20579;-76
2021/09/01 00:13:53;;;;;;;8.68;6.50;;;15.30;99.90;;;;;;5075354;28;20652;-77
2021/09/01 00:16:30;;;;;;;8.85;7.30;;;15.30;99.90;;;;;;5076249;28;20564;-78
2021/09/01 00:18:59;;;;;;;9.07;7.40;;;15.20;99.90;;;;;;5075212;28;20222;-76
2021/09/01 00:21:26;;;;;;;7.55;6.57;;;15.20;99.90;;;;;;5076136;28;20299;-76
2021/09/01 00:23:54;;;;;;;9.52;6.80;;;15.20;99.90;;;;;;5075145;28;20335;-77
2021/09/01 00:26:21;;;;;;;12.20;6.80;;;15.30;99.90;;;;;;5075132;28;20205;-76
2021/09/01 00:28:49;;;;;;;8.07;6.60;;;15.30;99.90;;;;;;5076684;28;20205;-78
2021/09/01 00:31:18;;;;;;;8.95;7.35;;;15.30;99.90;;;;;;5079453;28;20212;-75
2021/09/01 00:33:45;;;;;;;8.85;6.72;;;15.30;99.90;;;;;;5074794;28;20235;-75
2021/09/01 00:36:12;;;;;;;10.30;7.80;;;15.20;99.90;;;;;;5075088;28;20291;-77
2021/09/01 00:38:40;;;;;;;9.18;6.10;;;15.20;99.90;;;;;;5074260;28;20225;-77
2021/09/01 00:41:09;;;;;;;11.05;7.30;;;15.20;99.90;;;;;;5075680;28;20219;-76
2021/09/01 00:43:36;;;;;;;11.90;8.23;;;15.10;99.90;;;;;;5076009;28;20255;-78
2021/09/01 00:46:03;;;;;;;11.27;8.05;;;14.90;99.90;;;;;;5077286;28;20215;-77
2021/09/01 00:48:30;;;;;;;10.23;7.30;;;14.80;99.90;;;;;;5076533;28;20524;-77
2021/09/01 00:50:58;;;;;;;12.18;8.32;;;14.80;99.90;;;;;;5077735;28;20300;-75
2021/09/01 00:53:27;;;;;;;10.93;8.30;;;14.80;99.90;;;;;;5078725;28;20641;-77
2021/09/01 00:55:55;;;;;;;9.88;7.60;;;14.80;99.90;;;;;;5076379;28;20306;-76
2021/09/01 00:58:24;;;;;;;10.80;7.88;;;14.60;99.90;;;;;;5074346;28;20256;-76
2021/09/01 01:01:09;;;;;;;11.05;8.18;;;14.70;99.90;;;;;;5074583;28;20700;-75
2021/09/01 01:03:36;;;;;;;9.73;7.13;;;14.70;99.90;;;;;;5074600;28;20223;-76
2021/09/01 01:06:03;;;;;;;9.90;7.30;;;14.70;99.90;;;;;;5074494;28;20205;-75
2021/09/01 01:08:31;;;;;;;11.10;7.68;;;14.70;99.90;;;;;;5075171;28;20292;-75
2021/09/01 01:10:58;;;;;;;10.00;7.18;;;14.80;99.90;;;;;;5074593;28;20207;-75
2021/09/01 01:13:27;;;;;;;8.30;6.90;;;14.80;99.90;;;;;;5074367;28;20583;-75
2021/09/01 01:15:55;;;;;;;9.30;7.63;;;14.80;99.90;;;;;;5074488;28;20203;-75
2021/09/01 01:18:22;;;;;;;10.30;7.50;;;14.90;99.90;;;;;;5074209;28;20311;-75
2021/09/01 01:20:50;;;;;;;8.00;7.18;;;14.90;99.90;;;;;;5074195;28;20577;-75
2021/09/01 01:23:17;;;;;;;11.13;7.32;;;14.90;99.90;;;;;;5074006;28;20587;-76
2021/09/01 01:25:46;;;;;;;9.05;7.10;;;14.90;99.90;;;;;;5074708;28;20258;-76
2021/09/01 01:28:13;;;;;;;9.18;7.60;;;14.90;99.90;;;;;;5075306;28;20205;-78
2021/09/01 01:30:42;;;;;;;9.30;6.45;;;14.80;99.90;;;;;;5079861;28;20240;-78
2021/09/01 01:33:09;;;;;;;9.90;7.22;;;14.80;99.90;;;;;;5079416;28;20319;-77
2021/09/01 01:35:38;;;;;;;7.88;6.70;;;14.80;99.90;;;;;;5078298;28;20198;-77
2021/09/01 01:38:07;;;;;;;11.57;7.38;;;14.70;99.90;;;;;;5074896;28;20204;-77
2021/09/01 01:40:34;;;;;;;10.40;8.40;;;14.70;99.90;;;;;;5076881;28;20299;-77
2021/09/01 01:43:04;;;;;;;10.98;7.72;;;14.70;99.90;;;;;;5076917;28;20314;-77
2021/09/01 01:45:33;;;;;;;11.52;7.65;;;14.80;99.90;;;;;;5074192;28;20232;-74
2021/09/01 01:48:00;;;;;;;11.88;8.10;;;14.80;99.90;;;;;;5073523;28;20295;-76
2021/09/01 01:50:27;;;;;;;10.23;6.85;;;14.90;99.90;;;;;;5072505;28;20671;-73
2021/09/01 01:52:55;;;;;;;11.10;7.95;;;14.90;99.90;;;;;;5073127;28;20251;-74
2021/09/01 01:55:21;;;;;;;12.20;7.55;;;14.80;99.90;;;;;;5073544;28;20203;-75
2021/09/01 01:57:49;;;;;;;12.75;8.20;;;14.90;99.90;;;;;;5074811;28;20203;-77
2021/09/01 02:00:17;;;;;;;12.00;7.85;;;14.90;99.90;;;;;;5076172;28;20220;-77
2021/09/01 02:02:44;;;;;;;11.23;7.57;;;14.70;99.90;;;;;;5077354;28;20215;-77
2021/09/01 02:05:12;;;;;;;11.57;7.97;;;14.70;99.90;;;;;;5079127;28;20228;-78
2021/09/01 02:07:39;;;;;;;11.45;8.50;;;14.80;99.90;;;;;;5079677;28;20467;-77
2021/09/01 02:10:08;;;;;;;12.63;8.07;;;14.80;99.90;;;;;;5078221;28;20223;-76
2021/09/01 02:12:35;;;;;;;12.45;7.93;;;14.80;99.90;;;;;;5076058;28;20295;-77
2021/09/01 02:15:03;;;;;;;14.68;8.15;;;14.80;99.90;;;;;;5073051;28;20620;-76
2021/09/01 02:17:31;;;;;;;10.27;7.38;;;14.70;99.90;;;;;;5073503;28;20293;-77
2021/09/01 02:19:59;;;;;;;11.27;8.30;;;14.80;99.90;;;;;;5074284;28;20311;-76
2021/09/01 02:22:26;;;;;;;8.55;7.55;;;14.60;99.90;;;;;;5072785;28;20205;-75
2021/09/01 02:24:53;;;;;;;11.98;7.95;;;14.60;99.90;;;;;;5073305;28;20683;-76
2021/09/01 02:27:20;;;;;;;11.40;8.13;;;14.50;99.90;;;;;;5079131;28;20234;-78
2021/09/01 02:29:47;;;;;;;10.75;8.48;;;14.40;99.90;;;;;;5078659;28;20278;-77
2021/09/01 02:32:14;;;;;;;12.20;7.55;;;14.40;99.90;;;;;;5078285;28;20742;-79
2021/09/01 02:34:42;;;;;;;11.07;7.32;;;14.50;99.90;;;;;;5079928;28;20310;-78
2021/09/01 02:37:09;;;;;;;9.02;7.30;;;14.50;99.90;;;;;;5081062;28;20236;-78
2021/09/01 02:39:36;;;;;;;12.93;8.93;;;14.40;99.90;;;;;;5080861;28;20287;-78
2021/09/01 02:42:03;;;;;;;10.82;7.85;;;14.30;99.90;;;;;;5080344;28;20245;-78
2021/09/01 02:44:30;;;;;;;12.20;8.32;;;14.10;99.90;;;;;;5082213;28;20226;-77
2021/09/01 02:46:57;;;;;;;15.07;9.20;;;14.10;99.90;;;;;;5082668;28;20265;-77
2021/09/01 02:49:23;;;;;;;9.93;7.65;;;14.10;99.90;;;;;;5082236;28;20293;-79
2021/09/01 02:51:52;;;;;;;14.50;8.63;;;14.00;99.90;;;;;;5083079;28;20210;-78
2021/09/01 02:54:19;;;;;;;15.50;8.57;;;13.80;99.90;;;;;;5083545;28;20261;-77
2021/09/01 02:56:46;;;;;;;11.52;7.75;;;13.90;99.90;;;;;;5082833;28;20290;-79
2021/09/01 02:59:13;;;;;;;9.95;7.53;;;14.00;99.90;;;;;;5083280;28;20222;-79
2021/09/01 03:01:40;;;;;;;11.60;7.70;;;14.00;99.90;;;;;;5083108;28;20210;-78
2021/09/01 03:04:06;;;;;;;14.93;8.93;;;14.10;99.90;;;;;;5083038;28;20258;-77
2021/09/01 03:06:33;;;;;;;17.33;9.20;;;14.10;99.90;;;;;;5083218;28;20262;-78
2021/09/01 03:09:02;;;;;;;11.00;8.30;;;14.00;99.90;;;;;;5083355;28;20229;-78
2021/09/01 03:11:28;;;;;;;16.52;8.82;;;13.80;99.90;;;;;;5082209;28;20199;-78
2021/09/01 03:13:55;;;;;;;13.65;8.25;;;13.70;99.90;;;;;;5082573;28;20246;-78
2021/09/01 03:16:22;;;;;;;13.45;8.70;;;13.70;99.90;;;;;;5083000;28;20235;-78
2021/09/01 03:18:49;;;;;;;11.02;8.48;;;13.60;99.90;;;;;;5081907;28;20254;-78
2021/09/01 03:21:16;;;;;;;11.23;7.70;;;13.70;99.90;;;;;;5082262;28;20260;-78
2021/09/01 03:23:43;;;;;;;11.65;8.15;;;13.70;99.90;;;;;;5081466;28;20314;-78
2021/09/01 03:26:11;;;;;;;11.27;8.23;;;13.80;99.90;;;;;;5082047;28;20231;-78
2021/09/01 03:28:38;;;;;;;11.70;8.48;;;13.80;99.90;;;;;;5082481;28;20287;-78
2021/09/01 03:31:04;;;;;;;12.88;8.40;;;13.70;99.90;;;;;;5083340;28;20291;-78
2021/09/01 03:33:31;;;;;;;14.05;9.50;;;13.60;99.90;;;;;;5082338;28;20225;-78
2021/09/01 03:35:58;;;;;;;13.55;7.75;;;13.50;99.90;;;;;;5082664;28;20237;-79
2021/09/01 03:38:25;;;;;;;13.35;8.57;;;13.40;99.90;;;;;;5082521;28;20274;-78
2021/09/01 03:40:52;;;;;;;11.02;8.32;;;13.10;99.90;;;;;;5082072;28;20250;-78
2021/09/01 03:43:20;;;;;;;12.38;9.07;;;13.00;99.90;;;;;;5081623;28;20226;-77
2021/09/01 03:45:47;;;;;;;13.23;9.38;;;12.90;99.90;;;;;;5082151;28;20624;-77
2021/09/01 03:48:14;;;;;;;11.25;8.45;;;12.90;99.90;;;;;;5082466;28;20234;-79
2021/09/01 03:50:41;;;;;;;13.23;9.20;;;12.90;99.90;;;;;;5084080;28;20287;-76
2021/09/01 03:53:07;;;;;;;11.00;8.52;;;13.00;99.90;;;;;;5083459;28;20309;-77
2021/09/01 03:55:34;;;;;;;12.20;8.60;;;13.20;99.90;;;;;;5083115;28;20700;-78
2021/09/01 03:58:01;;;;;;;12.70;9.50;;;13.30;99.90;;;;;;5083129;28;20226;-77
2021/09/01 04:00:29;;;;;;;11.25;8.10;;;13.50;99.90;;;;;;5082904;28;20290;-79
2021/09/01 04:02:56;;;;;;;10.43;8.38;;;13.60;99.90;;;;;;5083053;28;20689;-79
2021/09/01 04:05:24;;;;;;;13.85;9.27;;;13.50;99.90;;;;;;5082137;28;20226;-79
2021/09/01 04:07:51;;;;;;;12.20;8.32;;;13.30;99.90;;;;;;5082037;28;20202;-77
2021/09/01 04:10:18;;;;;;;11.05;8.10;;;13.10;99.90;;;;;;5081725;28;20231;-79
2021/09/01 04:12:46;;;;;;;13.40;8.48;;;12.90;99.90;;;;;;5082136;28;20267;-78
2021/09/01 04:15:13;;;;;;;13.75;8.80;;;12.90;99.90;;;;;;5084742;28;20203;-79
2021/09/01 04:17:41;;;;;;;10.93;7.70;;;13.00;99.90;;;;;;5085017;28;20289;-79
2021/09/01 04:20:10;;;;;;;12.07;8.05;;;13.20;99.90;;;;;;5085917;28;20289;-79
2021/09/01 04:22:37;;;;;;;12.27;8.70;;;13.20;99.90;;;;;;5086190;28;20226;-77
2021/09/01 04:25:05;;;;;;;15.35;8.98;;;13.20;99.90;;;;;;5085898;28;20214;-78
2021/09/01 04:27:32;;;;;;;13.25;8.55;;;13.10;99.90;;;;;;5087260;28;20266;-79
2021/09/01 04:29:59;;;;;;;13.30;8.15;;;13.00;99.90;;;;;;5086906;28;20707;-79
2021/09/01 04:32:26;;;;;;;13.25;8.30;;;12.90;99.90;;;;;;5086524;28;20239;-80
2021/09/01 04:34:54;;;;;;;13.77;9.60;;;12.80;99.90;;;;;;5086930;28;20237;-79
2021/09/01 04:37:21;;;;;;;11.90;9.40;;;12.70;99.90;;;;;;5087204;28;20695;-79
2021/09/01 04:39:48;;;;;;;13.15;9.43;;;12.60;99.90;;;;;;5087371;28;20269;-79
2021/09/01 04:42:14;;;;;;;13.38;8.65;;;12.60;99.90;;;;;;5086088;28;20297;-78
2021/09/01 04:44:41;;;;;;;16.13;8.38;;;12.80;99.90;;;;;;5085906;28;20233;-79
2021/09/01 04:47:08;;;;;;;14.50;9.85;;;13.00;99.90;;;;;;5085823;28;20564;-77
2021/09/01 04:49:35;;;;;;;17.77;10.00;;;13.00;99.90;;;;;;5085357;28;20237;-79
2021/09/01 04:52:03;;;;;;;14.60;9.85;;;13.10;99.90;;;;;;5085543;28;20266;-78
2021/09/01 04:54:32;;;;;;;15.77;9.90;;;13.20;99.90;;;;;;5086045;28;20246;-79
2021/09/01 04:56:59;;;;;;;12.57;8.88;;;13.40;99.90;;;;;;5086049;28;20203;-78
2021/09/01 04:59:25;;;;;;;15.50;10.52;;;13.50;99.90;;;;;;5085698;28;20242;-78
2021/09/01 05:01:52;;;;;;;16.27;10.85;;;13.60;99.90;;;;;;5085195;28;20208;-79
2021/09/01 05:04:19;;;;;;;16.05;10.25;;;13.70;99.90;;;;;;5085029;28;20258;-79
2021/09/01 05:06:46;;;;;;;14.52;10.43;;;13.60;99.90;;;;;;5084272;28;20270;-79
2021/09/01 05:09:14;;;;;;;17.27;11.23;;;13.60;99.90;;;;;;5085897;28;20215;-79
2021/09/01 05:11:41;;;;;;;16.92;10.70;;;13.60;99.90;;;;;;5086061;28;20302;-79
2021/09/01 05:14:08;;;;;;;17.83;10.40;;;13.50;99.90;;;;;;5085964;28;20313;-79
2021/09/01 05:16:35;;;;;;;18.58;10.40;;;13.40;99.90;;;;;;5085051;28;20278;-79
2021/09/01 05:19:01;;;;;;;16.67;10.40;;;13.50;99.90;;;;;;5085476;28;20210;-78
2021/09/01 05:21:30;;;;;;;14.57;9.85;;;13.40;99.90;;;;;;5085794;28;20245;-79
2021/09/01 05:23:57;;;;;;;22.25;11.90;;;13.50;99.90;;;;;;5085980;28;20313;-79
2021/09/01 05:26:32;;;;;;;16.98;10.57;;;13.50;99.90;;;;;;5084611;28;20290;-78
2021/09/01 05:29:03;;;;;;;18.58;10.52;;;13.50;99.90;;;;;;5085109;28;20274;-78
2021/09/01 05:31:32;;;;;;;19.45;11.98;;;13.40;99.90;;;;;;5084957;28;20187;-79
2021/09/01 05:34:02;;;;;;;16.83;10.90;;;13.40;99.90;;;;;;5085194;28;20227;-79
2021/09/01 05:36:30;;;;;;;14.82;10.15;;;13.50;99.90;;;;;;5085957;28;20214;-78
2021/09/01 05:38:57;;;;;;;18.75;11.07;;;13.50;99.90;;;;;;5085416;28;20206;-79
2021/09/01 05:41:30;;;;;;;16.17;10.30;;;13.50;99.90;;;;;;5085915;28;20230;-79
2021/09/01 05:43:59;;;;;;;15.48;10.77;;;13.60;99.90;;;;;;5086526;28;20585;-79
2021/09/01 05:46:26;;;;;;;16.67;10.80;;;13.60;99.90;;;;;;5085946;28;20725;-79
2021/09/01 05:48:53;;;;;;;13.65;10.05;;;13.70;99.90;;;;;;5086079;28;20286;-79
2021/09/01 05:51:22;;;;;;;13.98;9.45;;;13.80;99.90;;;;;;5085925;28;20285;-79
2021/09/01 05:53:49;;;;;;;15.85;10.20;;;13.90;99.90;;;;;;5086424;28;20252;-79
2021/09/01 05:56:22;;;;;;;13.85;9.82;;;13.90;99.90;;;;;;5085323;28;20226;-79
2021/09/01 05:58:54;;;;;;;15.60;10.02;;;13.80;99.90;;;;;;5085864;28;20238;-80
2021/09/01 06:01:27;;;;;;;13.98;10.23;;;13.80;99.90;;;;;;5085321;28;20705;-79
2021/09/01 06:04:00;;;;;;;14.05;8.90;;;13.80;99.90;;;;;;5085312;28;20228;-79
2021/09/01 06:06:28;;;;;;;14.70;9.18;;;13.80;99.90;;;;;;5085478;28;20210;-79
2021/09/01 06:08:59;;;;;;;15.88;10.00;;;13.80;99.90;;;;;;5085445;28;20230;-79
2021/09/01 06:11:28;;;;;;;14.50;9.50;;;13.70;99.90;;;;;;5085414;28;20233;-79
2021/09/01 06:13:56;;;;;;;15.48;8.77;;;13.70;99.90;;;;;;5085761;28;20251;-78
2021/09/01 06:16:23;;;;;;;15.85;9.50;;;13.70;99.90;;;;;;5085647;28;20237;-79
2021/09/01 06:18:50;;;;;;;15.07;9.50;;;13.70;99.90;;;;;;5084964;28;20226;-79
2021/09/01 06:21:16;;;;;;;16.73;9.65;;;13.60;99.90;;;;;;5085476;28;20246;-79
2021/09/01 06:23:43;;;;;;;15.50;9.27;;;13.70;99.90;;;;;;5084840;28;20222;-79
2021/09/01 06:26:11;;;;;;;14.90;9.63;;;13.50;99.90;;;;;;5084886;28;20213;-78
2021/09/01 06:28:38;;;;;;;12.05;8.40;;;13.50;99.90;;;;;;5085263;28;20207;-79
2021/09/01 06:31:06;;;;;;;15.68;9.95;;;13.60;99.90;;;;;;5082931;28;20266;-78
2021/09/01 06:33:33;;;;;;;14.45;9.35;;;13.60;99.90;;;;;;5084080;28;20235;-78
2021/09/01 06:36:00;;;;;;;15.35;10.68;;;13.60;99.90;;;;;;5083480;28;20202;-78
2021/09/01 06:38:27;;;;;;;17.60;10.27;;;13.70;99.90;;;;;;5083450;28;20229;-79
2021/09/01 06:40:54;;;;;;;13.73;9.55;;;13.90;99.90;;;;;;5083327;28;20224;-78
2021/09/01 06:43:21;;;;;;;17.95;10.95;;;14.00;99.90;;;;;;5084098;28;20373;-78
2021/09/01 06:45:48;;;;;;;14.70;10.40;;;14.00;99.90;;;;;;5083528;28;20266;-79
2021/09/01 06:48:16;;;;;;;17.15;10.77;;;14.00;99.90;;;;;;5083769;28;20203;-78
2021/09/01 06:50:43;;;;;;;16.23;10.52;;;14.10;99.90;;;;;;5083539;28;20696;-78
2021/09/01 06:53:12;;;;;;;17.27;11.43;;;14.30;99.90;;;;;;5083574;28;20247;-78
2021/09/01 06:55:39;;;;;;;15.40;9.55;;;14.50;99.90;;;;;;5083272;28;20235;-78
2021/09/01 06:58:15;;;;;;;17.00;11.75;;;14.60;99.90;;;;;;5083698;28;20291;-77
2021/09/01 07:00:42;;;;;;;17.05;10.52;;;14.70;99.90;;;;;;5082661;28;20231;-77
2021/09/01 07:03:09;;;;;;;15.80;9.85;;;14.60;99.90;;;;;;5083679;28;20248;-79
2021/09/01 07:05:37;;;;;;;16.40;10.20;;;14.70;99.90;;;;;;5083087;28;20232;-79
2021/09/01 07:08:11;;;;;;;15.45;9.55;;;14.70;99.90;;;;;;5083994;28;20707;-78
2021/09/01 07:10:38;;;;;;;12.85;9.02;;;14.80;99.90;;;;;;5083110;28;20202;-78
2021/09/01 07:13:05;;;;;;;15.25;9.80;;;14.80;99.90;;;;;;5083714;28;20220;-78
2021/09/01 07:15:32;;;;;;;14.18;9.43;;;14.80;99.90;;;;;;5082801;28;20209;-79
2021/09/01 07:17:59;;;;;;;13.60;9.00;;;14.90;99.90;;;;;;5083703;28;20272;-77
2021/09/01 07:20:26;;;;;;;19.20;10.77;;;14.90;99.90;;;;;;5082896;28;20792;-79
2021/09/01 07:22:55;;;;;;;14.95;9.80;;;15.00;99.90;;;;;;5081193;28;20225;-78
2021/09/01 07:25:22;;;;;;;13.75;9.00;;;15.10;99.90;;;;;;5080441;28;20240;-77
2021/09/01 07:27:49;;;;;;;14.13;8.82;;;15.10;99.90;;;;;;5081612;28;20616;-80
2021/09/01 07:30:17;;;;;;;12.32;9.18;;;15.10;99.90;;;;;;5079692;28;20200;-78
2021/09/01 07:32:43;;;;;;;11.15;7.13;;;15.20;99.90;;;;;;5084730;28;20690;-76
2021/09/01 07:35:12;;;;;;;11.90;8.00;;;15.40;99.90;;;;;;5093275;28;20293;-76
2021/09/01 07:37:44;;;;;;;13.73;8.82;;;15.50;99.90;;;;;;5093302;28;20204;-76
2021/09/01 07:40:14;;;;;;;14.00;8.43;;;15.60;99.90;;;;;;5082007;28;20242;-75
2021/09/01 07:42:41;;;;;;;11.70;8.25;;;15.60;99.90;;;;;;5092830;28;20291;-76
2021/09/01 07:45:08;;;;;;;12.52;8.55;;;15.60;99.90;;;;;;5092463;28;20233;-75
2021/09/01 07:47:35;;;;;;;14.60;8.93;;;15.70;99.90;;;;;;5093902;28;20237;-76
2021/09/01 07:50:02;;;;;;;17.17;9.63;;;15.60;99.90;;;;;;5096005;28;20287;-73
2021/09/01 07:52:29;;;;;;;14.55;8.77;;;15.60;99.90;;;;;;5095681;28;20624;-72
2021/09/01 07:54:56;;;;;;;14.68;8.85;;;15.60;99.90;;;;;;5095053;28;20292;-72
2021/09/01 07:57:24;;;;;;;12.43;8.35;;;15.70;99.90;;;;;;5095594;28;20205;-72
2021/09/01 07:59:51;;;;;;;13.07;8.02;;;15.80;99.90;;;;;;5095480;28;20201;-71
2021/09/01 08:02:17;;;;;;;12.10;7.95;;;15.90;99.90;;;;;;5095674;28;20219;-72
2021/09/01 08:04:44;;;;;;;13.55;8.52;;;16.10;99.90;;;;;;5095415;28;20226;-73
2021/09/01 08:07:11;;;;;;;15.50;9.98;;;16.20;99.90;;;;;;5095371;28;20222;-72
2021/09/01 08:09:38;;;;;;;14.20;9.63;;;16.20;99.90;;;;;;5095959;28;20202;-73
2021/09/01 08:12:05;;;;;;;13.25;9.82;;;16.30;99.90;;;;;;5097216;28;20387;-77
2021/09/01 08:14:34;;;;;;;14.55;9.82;;;16.40;99.90;;;;;;5097468;28;20222;-74
2021/09/01 08:17:01;;;;;;;14.93;9.30;;;16.40;99.90;;;;;;5096776;28;20202;-74
2021/09/01 08:19:27;;;;;;;15.40;10.05;;;16.50;99.90;;;;;;5096757;28;20660;-74
2021/09/01 08:21:54;;;;;;;16.75;9.30;;;16.50;99.90;;;;;;5097230;28;20323;-74
2021/09/01 08:24:21;;;;;;;13.13;9.20;;;16.70;99.90;;;;;;5096626;28;20221;-74
2021/09/01 08:26:48;;;;;;;14.45;9.90;;;16.90;99.90;;;;;;5096775;28;20211;-74
2021/09/01 08:29:15;;;;;;;14.65;10.30;;;16.90;99.90;;;;;;5096587;28;20233;-74
2021/09/01 08:31:43;;;;;;;11.73;8.93;;;17.00;99.90;;;;;;5096653;28;20232;-74
2021/09/01 08:34:10;;;;;;;12.30;9.10;;;17.00;99.90;;;;;;5096842;28;20313;-74
2021/09/01 08:36:37;;;;;;;10.50;7.82;;;17.10;99.90;;;;;;5096455;28;20739;-74
2021/09/01 08:39:04;;;;;;;13.13;8.75;;;17.20;99.90;;;;;;5096729;28;20234;-74
2021/09/01 08:41:32;;;;;;;13.85;9.00;;;17.10;99.90;;;;;;5095878;28;20698;-74
2021/09/01 08:44:00;;;;;;;12.93;8.20;;;17.10;99.90;;;;;;5096616;28;20226;-74
2021/09/01 08:46:30;;;;;;;11.23;7.75;;;17.00;99.90;;;;;;5096241;28;20202;-74
2021/09/01 08:49:00;;;;;;;13.43;9.10;;;16.80;99.90;;;;;;5096286;28;20648;-73
2021/09/01 08:51:27;;;;;;;13.43;9.10;;;16.60;99.90;;;;;;5096448;28;20201;-73
2021/09/01 08:53:55;;;;;;;11.48;8.60;;;16.60;99.90;;;;;;5095954;28;20633;-74
2021/09/01 08:56:23;;;;;;;15.30;9.00;;;16.50;99.90;;;;;;5096093;28;20207;-74
2021/09/01 08:58:50;;;;;;;12.68;9.27;;;16.40;99.90;;;;;;5095830;28;20286;-73
2021/09/01 09:01:41;;;;;;;13.00;9.18;;;16.50;99.90;;;;;;5095600;28;20222;-73
2021/09/01 09:04:16;;;;;;;13.20;9.77;;;16.50;99.90;;;;;;5095626;28;20317;-73
2021/09/01 09:06:51;;;;;;;12.90;9.63;;;16.50;99.90;;;;;;5095733;28;20215;-73
2021/09/01 09:09:20;;;;;;;12.60;9.93;;;16.60;99.90;;;;;;5095757;28;20734;-74
2021/09/01 09:11:47;;;;;;;14.70;10.13;;;16.60;99.90;;;;;;5095698;28;20563;-73
2021/09/01 09:14:25;;;;;;;11.43;8.55;;;16.60;99.90;;;;;;5095340;28;20575;-73
2021/09/01 09:17:10;;;;;;;12.35;9.23;;;16.70;99.90;;;;;;5095508;28;20224;-73
2021/09/01 09:19:50;;;;;;;13.48;9.05;;;16.70;99.90;;;;;;5095679;28;20228;-73
2021/09/01 09:22:23;;;;;;;13.70;9.93;;;16.80;99.90;;;;;;5095730;28;20233;-73
2021/09/01 09:25:12;;;;;;;12.30;8.73;;;16.90;99.90;;;;;;5095527;28;20307;-73
2021/09/01 09:27:45;;;;;;;12.23;8.90;;;17.10;99.90;;;;;;5091257;28;20289;-73
2021/09/01 09:30:34;;;;;;;13.63;9.00;;;17.20;99.90;;;;;;5095430;28;20210;-73
2021/09/01 09:33:05;;;;;;;11.13;9.48;;;17.20;99.90;;;;;;5095453;28;20240;-73
2021/09/01 09:35:55;;;;;;;12.93;9.48;;;17.30;99.90;;;;;;5095326;28;20202;-73
2021/09/01 09:38:39;;;;;;;14.30;8.90;;;17.30;99.90;;;;;;5095192;28;20201;-73
2021/09/01 09:41:08;;;;;;;13.00;9.50;;;17.40;99.90;;;;;;5095116;28;20272;-74
2021/09/01 09:43:36;;;;;;;15.93;10.10;;;17.60;99.90;;;;;;5095337;28;20304;-73
2021/09/01 09:46:07;;;;;;;9.33;7.60;;;18.50;99.90;;;;;;5094998;28;20446;-74
2021/09/01 09:48:36;;;;;;;9.20;8.17;;;20.40;99.90;;;;;;5094880;28;20966;-74
2021/09/01 09:51:07;;;;;;;10.67;8.63;;;22.20;99.90;;;;;;5095130;28;20436;-74
2021/09/01 09:53:36;;;;;;;11.50;8.20;;;23.90;99.90;;;;;;5094814;28;20468;-74
2021/09/01 09:56:08;;;;;;;8.90;8.00;;;25.20;99.90;;;;;;5094893;28;20446;-75
2021/09/01 09:58:37;;;;;;;8.80;7.90;;;26.10;96.10;;;;;;5094847;28;20515;-75
2021/09/01 10:01:05;;;;;;;8.73;7.43;;;26.30;95.90;;;;;;5094623;28;20983;-74
2021/09/01 10:03:33;;;;;;;10.47;8.47;;;26.70;93.20;;;;;;5094648;28;20465;-75
2021/09/01 10:06:01;;;;;;;9.70;7.63;;;26.50;92.50;;;;;;5094360;28;20450;-75
2021/09/01 10:08:30;;;;;;;9.90;7.30;;;27.20;90.60;;;;;;5094957;28;20532;-75
2021/09/01 10:10:59;;;;;;;7.60;6.80;;;27.80;89.70;;;;;;5094279;28;20445;-74
2021/09/01 10:13:28;;;;;;;8.60;6.73;;;27.00;88.50;;;;;;5094306;28;20984;-74
2021/09/01 10:16:00;;;;;;;6.47;5.80;;;26.50;91.00;;;;;;5094261;28;20451;-74
2021/09/01 10:18:28;;;;;;;7.00;6.30;;;27.20;90.40;;;;;;5094772;28;20477;-75
2021/09/01 10:20:56;;;;;;;8.63;6.77;;;28.50;83.30;;;;;;5094669;28;20481;-74
2021/09/01 10:23:41;;;;;;;6.87;6.27;;;28.50;81.90;;;;;;5094502;28;20475;-74
2021/09/01 10:26:26;;;;;;;6.40;5.80;;;28.80;79.50;;;;;;5094223;28;20443;-74
2021/09/01 10:28:54;;;;;;;6.40;5.30;;;28.50;77.40;;;;;;5094556;28;20535;-75
2021/09/01 10:31:26;;;;;;;5.63;5.13;;;29.30;78.00;;;;;;5094590;28;20450;-74
2021/09/01 10:33:55;;;;;;;5.67;5.17;;;29.50;73.50;;;;;;5094618;28;20555;-74
2021/09/01 10:36:47;;;;;;;5.53;5.03;;;29.50;73.50;;;;;;5093840;28;20453;-74
2021/09/01 10:39:37;;;;;;;6.20;5.57;;;30.30;71.20;;;;;;5094413;28;20516;-75
2021/09/01 10:42:38;;;;;;;5.00;4.60;;;31.10;64.50;;;;;;5093636;28;20831;-75
2021/09/01 10:45:11;;;;;;;4.73;4.33;;;31.80;64.90;;;;;;5089518;28;20490;-75
2021/09/01 10:48:09;;;;;;;4.73;4.27;;;31.80;63.10;;;;;;5094458;28;20440;-75
2021/09/01 10:50:37;;;;;;;5.77;5.27;;;31.40;60.30;;;;;;5031853;28;20455;-75
2021/09/01 10:53:09;;;;;;;5.90;5.40;;;29.20;61.70;;;;;;5080244;28;20480;-74
2021/09/01 10:55:56;;;;;;;5.00;4.40;;;27.60;67.10;;;;;;5093855;28;20771;-75
2021/09/01 10:58:25;;;;;;;4.83;4.40;;;26.90;68.40;;;;;;5094230;28;20538;-74
2021/09/01 11:00:57;;;;;;;5.07;4.60;;;25.90;73.80;;;;;;5094162;28;20535;-74
2021/09/01 11:03:35;;;;;;;4.67;3.77;;;25.60;74.70;;;;;;5093911;28;20563;-75
2021/09/01 11:06:24;;;;;;;4.40;4.00;;;25.40;76.20;;;;;;5093698;28;20440;-74
2021/09/01 11:09:12;;;;;;;5.03;4.50;;;26.00;73.90;;;;;;5094167;28;20486;-74
2021/09/01 11:11:52;;;;;;;4.70;4.30;;;26.10;73.90;;;;;;5093840;28;20454;-75
2021/09/01 11:14:46;;;;;;;6.63;5.80;;;26.50;72.00;;;;;;5093781;28;20477;-75
2021/09/01 11:17:14;;;;;;;4.80;4.40;;;25.60;75.70;;;;;;5079216;28;20460;-75
2021/09/01 11:19:42;;;;;;;5.10;4.60;;;24.90;79.70;;;;;;5093976;28;20443;-74
2021/09/01 11:22:11;;;;;;;4.37;3.97;;;24.60;81.40;;;;;;5093649;28;20568;-75
2021/09/01 11:24:49;;;;;;;5.27;4.77;;;24.40;82.20;;;;;;5097905;28;20558;-75
2021/09/01 11:27:20;;;;;;;5.13;4.63;;;25.20;81.40;;;;;;5097932;28;20440;-75
2021/09/01 11:29:47;;;;;;;4.77;4.10;;;26.00;81.70;;;;;;5097722;28;20439;-75
2021/09/01 11:32:15;;;;;;;4.90;4.50;;;26.90;77.30;;;;;;5097530;28;20479;-74
2021/09/01 11:34:42;;;;;;;5.33;4.83;;;27.30;74.20;;;;;;5097944;28;20473;-76
2021/09/01 11:37:09;;;;;;;4.57;4.13;;;27.30;72.70;;;;;;5097706;28;20441;-75
2021/09/01 11:39:42;;;;;;;5.27;4.80;;;27.30;74.10;;;;;;5097735;28;20451;-74
2021/09/01 11:42:10;;;;;;;5.00;4.53;;;26.90;72.40;;;;;;5097091;28;20483;-75
2021/09/01 11:44:38;;;;;;;4.70;4.30;;;26.50;72.80;;;;;;5097072;28;20467;-75
2021/09/01 11:47:10;;;;;;;5.67;4.80;;;25.50;74.00;;;;;;5097225;28;20440;-75
2021/09/01 11:49:37;;;;;;;4.50;4.10;;;24.50;75.70;;;;;;5097266;28;20447;-75
2021/09/01 11:52:05;;;;;;;4.37;3.87;;;23.90;76.90;;;;;;5097389;28;20974;-75
2021/09/01 11:54:31;;;;;;;4.63;4.20;;;23.40;77.30;;;;;;5097762;28;20520;-75
2021/09/01 11:56:58;;;;;;;4.13;3.73;;;23.10;78.90;;;;;;5096896;28;21003;-76
2021/09/01 11:59:26;;;;;;;4.60;4.20;;;22.70;79.70;;;;;;5097718;28;20440;-75
2021/09/01 12:01:59;;;;;;;4.70;4.30;;;22.50;83.00;;;;;;5097107;28;20977;-76
2021/09/01 12:04:27;;;;;;;4.67;4.20;;;22.50;82.60;;;;;;5097355;28;20474;-75
2021/09/01 12:06:55;;;;;;;7.53;4.67;;;22.60;84.40;;;;;;5096984;28;20501;-75
2021/09/01 12:09:24;;;;;;;5.00;4.60;;;22.70;84.70;;;;;;5097297;28;20527;-75
2021/09/01 12:11:53;;;;;;;4.73;4.33;;;22.50;87.90;;;;;;5096705;28;20440;-76
2021/09/01 12:14:22;;;;;;;5.53;4.70;;;22.60;85.30;;;;;;5097455;28;20551;-76
2021/09/01 12:16:50;;;;;;;5.73;4.80;;;22.40;88.30;;;;;;5096649;28;20445;-75
2021/09/01 12:19:19;;;;;;;5.47;4.87;;;22.20;90.30;;;;;;5096903;28;20436;-76
2021/09/01 12:21:51;;;;;;;5.07;4.57;;;22.30;90.90;;;;;;5096879;28;20471;-75
2021/09/01 12:24:24;;;;;;;5.47;4.90;;;22.30;91.20;;;;;;5096522;28;20958;-75
2021/09/01 12:27:04;;;;;;;5.13;4.63;;;22.30;90.80;;;;;;5096511;28;20447;-75
2021/09/01 12:29:36;;;;;;;5.47;4.97;;;22.40;90.70;;;;;;5096650;28;20906;-75
2021/09/01 12:32:05;;;;;;;5.23;4.70;;;22.30;90.40;;;;;;5096834;28;20798;-75
2021/09/01 12:34:36;;;;;;;4.20;3.80;;;21.80;91.80;;;;;;5095274;28;20460;-75
2021/09/01 12:37:05;;;;;;;3.80;3.50;;;21.80;91.90;;;;;;5096098;28;20977;-75
2021/09/01 12:39:49;;;;;;;4.17;3.60;;;22.10;94.20;;;;;;5096283;28;21017;-75
2021/09/01 12:42:31;;;;;;;4.00;3.60;;;22.40;89.60;;;;;;5096566;28;20559;-75
2021/09/01 12:45:00;;;;;;;4.37;3.83;;;22.80;86.00;;;;;;5096452;28;20513;-76
2021/09/01 12:47:29;;;;;;;4.17;3.77;;;23.10;85.80;;;;;;5096225;28;20441;-75
2021/09/01 12:50:00;;;;;;;4.60;4.20;;;23.40;84.70;;;;;;5096255;28;20439;-75